Time,TemperatureF,DewpointF,PressureIn,WindDirection,WindDirectionDegrees,WindSpeedMPH,WindSpeedGustMPH,Humidity,HourlyPrecipIn,Conditions,Clouds,dailyrainin,SoftwareType,DateUTC
2013-09-24 00:01:00,46.6,44.1,30.05,SSE,156,0.0,0.0,91,-99.99,,,0.00,wview2wurapid,2013-09-24 04:01:00,
2013-09-24 00:03:00,46.5,44.0,30.05,SSE,156,0.0,0.0,91,-99.99,,,0.00,wview2wurapid,2013-09-24 04:03:00,
2013-09-24 00:08:00,46.4,43.9,30.05,SSE,156,0.0,0.0,91,-99.99,,,0.00,wview2wurapid,2013-09-24 04:08:00,
2013-09-24 00:13:00,46.2,43.7,30.05,SSE,156,0.0,0.0,91,-99.99,,,0.00,wview2wurapid,2013-09-24 04:13:00,
2013-09-24 00:18:00,46.0,43.5,30.05,SSE,156,0.0,0.0,91,-99.99,,,0.00,wview2wurapid,2013-09-24 04:18:00,
2013-09-24 00:23:00,45.8,43.6,30.05,SSE,156,0.0,0.0,92,-99.99,,,0.00,wview2wurapid,2013-09-24 04:23:00,
2013-09-24 00:28:00,45.7,43.5,30.05,SSE,156,0.0,0.0,92,-99.99,,,0.00,wview2wurapid,2013-09-24 04:28:00,
2013-09-24 00:33:00,45.8,43.6,30.06,SSE,156,0.0,0.0,92,-99.99,,,0.00,wview2wurapid,2013-09-24 04:33:00,
2013-09-24 00:38:00,45.9,43.7,30.05,SSE,156,0.0,0.0,92,-99.99,,,0.00,wview2wurapid,2013-09-24 04:38:00,
2013-09-24 00:43:00,45.9,43.4,30.06,SSE,156,0.0,0.0,91,-99.99,,,0.00,wview2wurapid,2013-09-24 04:43:00,
2013-09-24 00:48:00,45.7,43.2,30.06,SSE,155,0.0,0.0,91,-99.99,,,0.00,wview2wurapid,2013-09-24 04:48:00,
2013-09-24 00:53:00,45.5,43.0,30.06,SSE,156,0.0,0.0,91,-99.99,,,0.00,wview2wurapid,2013-09-24 04:53:00,
2013-09-24 00:58:00,45.2,42.7,30.06,SSE,156,0.0,0.0,91,-99.99,,,0.00,wview2wurapid,2013-09-24 04:58:00,
2013-09-24 01:03:00,45.1,43.2,30.06,SSE,156,0.0,0.0,93,-99.99,,,0.00,wview2wurapid,2013-09-24 05:03:00,
2013-09-24 01:08:00,45.2,43.3,30.06,SSE,155,0.0,0.0,93,-99.99,,,0.00,wview2wurapid,2013-09-24 05:08:00,
2013-09-24 01:13:00,45.3,43.4,30.06,SSE,156,0.0,0.0,93,-99.99,,,0.00,wview2wurapid,2013-09-24 05:13:00,
2013-09-24 01:18:00,45.3,43.1,30.06,SSE,156,0.0,0.0,92,-99.99,,,0.00,wview2wurapid,2013-09-24 05:18:00,
2013-09-24 01:23:00,45.3,43.1,30.06,SSE,156,0.0,0.0,92,-99.99,,,0.00,wview2wurapid,2013-09-24 05:23:00,
2013-09-24 01:28:00,45.1,42.9,30.06,SSE,156,0.0,0.0,92,-99.99,,,0.00,wview2wurapid,2013-09-24 05:28:00,
2013-09-24 01:33:00,44.9,43.0,30.06,SSE,157,0.0,0.0,93,-99.99,,,0.00,wview2wurapid,2013-09-24 05:33:00,
2013-09-24 01:38:00,44.9,43.0,30.06,SSE,156,0.0,0.0,93,-99.99,,,0.00,wview2wurapid,2013-09-24 05:38:00,
2013-09-24 01:43:00,44.7,42.8,30.06,SSE,156,0.0,0.0,93,-99.99,,,0.00,wview2wurapid,2013-09-24 05:43:00,
2013-09-24 01:48:00,44.4,42.5,30.07,SSE,156,0.0,0.0,93,-99.99,,,0.00,wview2wurapid,2013-09-24 05:48:00,
2013-09-24 01:53:00,44.2,42.3,30.07,SSE,156,0.0,0.0,93,-99.99,,,0.00,wview2wurapid,2013-09-24 05:53:00,
2013-09-24 01:58:00,44.0,42.4,30.06,SSE,156,0.0,0.0,94,-99.99,,,0.00,wview2wurapid,2013-09-24 05:58:00,
2013-09-24 02:03:00,44.0,42.4,30.06,SSE,156,0.0,0.0,94,-99.99,,,0.00,wview2wurapid,2013-09-24 06:03:00,
2013-09-24 02:08:00,43.7,42.1,30.06,SSE,156,0.0,0.0,94,-99.99,,,0.00,wview2wurapid,2013-09-24 06:08:00,
2013-09-24 02:13:00,43.8,42.5,30.06,SSE,156,0.0,0.0,95,-99.99,,,0.00,wview2wurapid,2013-09-24 06:13:00,
2013-09-24 02:18:00,43.8,42.5,30.06,SSE,156,0.0,0.0,95,-99.99,,,0.00,wview2wurapid,2013-09-24 06:18:00,
2013-09-24 02:23:00,43.8,42.5,30.06,SSE,156,0.0,0.0,95,-99.99,,,0.00,wview2wurapid,2013-09-24 06:23:00,
2013-09-24 02:28:00,43.6,42.0,30.06,SSE,156,0.0,0.0,94,-99.99,,,0.00,wview2wurapid,2013-09-24 06:28:00,
2013-09-24 02:33:00,43.5,42.2,30.06,SSE,156,0.0,0.0,95,-99.99,,,0.00,wview2wurapid,2013-09-24 06:33:00,
2013-09-24 02:38:00,43.6,42.3,30.06,SSE,156,0.0,0.0,95,-99.99,,,0.00,wview2wurapid,2013-09-24 06:38:00,
2013-09-24 02:43:00,43.5,42.2,30.06,SSE,156,0.0,0.0,95,-99.99,,,0.00,wview2wurapid,2013-09-24 06:43:00,
2013-09-24 02:48:00,43.2,41.9,30.06,SSE,156,0.0,0.0,95,-99.99,,,0.00,wview2wurapid,2013-09-24 06:48:00,
2013-09-24 02:53:00,42.9,41.6,30.06,SSE,156,0.0,0.0,95,-99.99,,,0.00,wview2wurapid,2013-09-24 06:53:00,
2013-09-24 02:58:00,42.9,41.6,30.06,SSE,155,0.0,0.0,95,-99.99,,,0.00,wview2wurapid,2013-09-24 06:58:00,
2013-09-24 03:03:00,43.0,41.9,30.06,SSE,156,0.0,0.0,96,-99.99,,,0.00,wview2wurapid,2013-09-24 07:03:00,
2013-09-24 03:08:00,43.0,41.9,30.06,SSE,156,0.0,0.0,96,-99.99,,,0.00,wview2wurapid,2013-09-24 07:08:00,
2013-09-24 03:13:00,42.9,41.6,30.05,SSE,156,0.0,0.0,95,-99.99,,,0.00,wview2wurapid,2013-09-24 07:13:00,
2013-09-24 03:18:00,42.7,41.4,30.06,SSE,156,0.0,0.0,95,-99.99,,,0.00,wview2wurapid,2013-09-24 07:18:00,
2013-09-24 03:23:00,42.6,41.5,30.06,SSE,156,0.0,0.0,96,-99.99,,,0.00,wview2wurapid,2013-09-24 07:23:00,
2013-09-24 03:28:00,42.7,41.6,30.06,SSE,156,0.0,0.0,96,-99.99,,,0.00,wview2wurapid,2013-09-24 07:28:00,
2013-09-24 03:33:00,42.6,41.5,30.06,SSE,156,0.0,0.0,96,-99.99,,,0.00,wview2wurapid,2013-09-24 07:33:00,
2013-09-24 03:38:00,42.5,41.4,30.06,SSE,156,0.0,0.0,96,-99.99,,,0.00,wview2wurapid,2013-09-24 07:38:00,
2013-09-24 03:43:00,42.4,41.3,30.06,SSE,156,0.0,0.0,96,-99.99,,,0.00,wview2wurapid,2013-09-24 07:43:00,
2013-09-24 03:48:00,42.2,41.1,30.06,SSE,156,0.0,0.0,96,-99.99,,,0.00,wview2wurapid,2013-09-24 07:48:00,
2013-09-24 03:53:00,42.2,41.1,30.06,SSE,156,0.0,0.0,96,-99.99,,,0.00,wview2wurapid,2013-09-24 07:53:00,
2013-09-24 03:58:00,42.2,41.1,30.06,SSE,156,0.0,0.0,96,-99.99,,,0.00,wview2wurapid,2013-09-24 07:58:00,
2013-09-24 04:03:00,42.1,41.0,30.06,SSE,156,0.0,0.0,96,-99.99,,,0.00,wview2wurapid,2013-09-24 08:03:00,
2013-09-24 04:08:00,42.0,40.9,30.06,SSE,156,0.0,0.0,96,-99.99,,,0.00,wview2wurapid,2013-09-24 08:08:00,
2013-09-24 04:13:00,42.0,40.9,30.06,SSE,157,0.0,0.0,96,-99.99,,,0.00,wview2wurapid,2013-09-24 08:13:00,
2013-09-24 04:18:00,42.0,41.2,30.06,SSE,156,0.0,0.0,97,-99.99,,,0.00,wview2wurapid,2013-09-24 08:18:00,
2013-09-24 04:23:00,41.9,40.8,30.06,SSE,156,0.0,0.0,96,-99.99,,,0.00,wview2wurapid,2013-09-24 08:23:00,
2013-09-24 04:28:00,41.8,40.7,30.06,SSE,156,0.0,0.0,96,-99.99,,,0.00,wview2wurapid,2013-09-24 08:28:00,
2013-09-24 04:33:00,41.8,40.7,30.06,SSE,156,0.0,0.0,96,-99.99,,,0.00,wview2wurapid,2013-09-24 08:33:00,
2013-09-24 04:38:00,41.7,40.6,30.06,SSE,156,0.0,0.0,96,-99.99,,,0.00,wview2wurapid,2013-09-24 08:38:00,
2013-09-24 04:43:00,41.5,40.4,30.06,SSE,156,0.0,0.0,96,-99.99,,,0.00,wview2wurapid,2013-09-24 08:43:00,
2013-09-24 04:48:00,41.4,40.3,30.06,SSE,157,0.0,0.0,96,-99.99,,,0.00,wview2wurapid,2013-09-24 08:48:00,
2013-09-24 04:53:00,41.3,40.2,30.06,SSE,155,0.0,0.0,96,-99.99,,,0.00,wview2wurapid,2013-09-24 08:53:00,
2013-09-24 04:58:00,41.2,40.1,30.06,SSE,156,0.0,0.0,96,-99.99,,,0.00,wview2wurapid,2013-09-24 08:58:00,
2013-09-24 05:03:00,41.1,40.0,30.06,SSE,156,0.0,0.0,96,-99.99,,,0.00,wview2wurapid,2013-09-24 09:03:00,
2013-09-24 05:08:00,41.0,40.2,30.06,SSE,156,0.0,0.0,97,-99.99,,,0.00,wview2wurapid,2013-09-24 09:08:00,
2013-09-24 05:13:00,40.9,40.1,30.06,SSE,155,0.0,0.0,97,-99.99,,,0.00,wview2wurapid,2013-09-24 09:13:00,
2013-09-24 05:18:00,40.9,40.1,30.06,SSE,155,0.0,0.0,97,-99.99,,,0.00,wview2wurapid,2013-09-24 09:18:00,
2013-09-24 05:23:00,40.9,40.1,30.06,SSE,156,0.0,0.0,97,-99.99,,,0.00,wview2wurapid,2013-09-24 09:23:00,
2013-09-24 05:28:00,40.8,40.0,30.06,SSE,155,0.0,0.0,97,-99.99,,,0.00,wview2wurapid,2013-09-24 09:28:00,
2013-09-24 05:33:00,40.9,40.1,30.06,SSE,156,0.0,0.0,97,-99.99,,,0.00,wview2wurapid,2013-09-24 09:33:00,
2013-09-24 05:38:00,40.9,40.1,30.06,SSE,156,0.0,0.0,97,-99.99,,,0.00,wview2wurapid,2013-09-24 09:38:00,
2013-09-24 05:43:00,40.8,40.0,30.06,SSE,156,0.0,0.0,97,-99.99,,,0.00,wview2wurapid,2013-09-24 09:43:00,
2013-09-24 05:48:00,40.8,40.0,30.06,SSE,155,0.0,0.0,97,-99.99,,,0.00,wview2wurapid,2013-09-24 09:48:00,
2013-09-24 05:53:00,40.9,40.1,30.06,SSE,156,0.0,0.0,97,-99.99,,,0.00,wview2wurapid,2013-09-24 09:53:00,
2013-09-24 05:58:00,41.1,40.3,30.06,SSE,156,0.0,0.0,97,-99.99,,,0.00,wview2wurapid,2013-09-24 09:58:00,
2013-09-24 06:03:00,41.1,40.3,30.06,SSE,155,0.0,0.0,97,-99.99,,,0.00,wview2wurapid,2013-09-24 10:03:00,
2013-09-24 06:08:00,41.1,40.3,30.06,SSE,155,0.0,0.0,97,-99.99,,,0.00,wview2wurapid,2013-09-24 10:08:00,
2013-09-24 06:13:00,41.2,40.7,30.06,SSE,155,0.0,0.0,98,-99.99,,,0.00,wview2wurapid,2013-09-24 10:13:00,
2013-09-24 06:18:00,41.4,40.9,30.06,SSE,156,0.0,0.0,98,-99.99,,,0.00,wview2wurapid,2013-09-24 10:18:00,
2013-09-24 06:23:00,41.5,41.0,30.06,SSE,155,0.0,0.0,98,-99.99,,,0.00,wview2wurapid,2013-09-24 10:23:00,
2013-09-24 06:28:00,41.5,41.0,30.06,SSE,156,0.0,0.0,98,-99.99,,,0.00,wview2wurapid,2013-09-24 10:28:00,
2013-09-24 06:33:00,41.5,40.7,30.06,SSE,156,0.0,0.0,97,-99.99,,,0.00,wview2wurapid,2013-09-24 10:33:00,
2013-09-24 06:38:00,41.3,40.5,30.06,SSE,156,0.0,0.0,97,-99.99,,,0.00,wview2wurapid,2013-09-24 10:38:00,
2013-09-24 06:43:00,41.2,40.4,30.06,SSE,156,0.0,0.0,97,-99.99,,,0.00,wview2wurapid,2013-09-24 10:43:00,
2013-09-24 06:48:00,41.2,40.4,30.06,SSE,156,0.0,0.0,97,-99.99,,,0.00,wview2wurapid,2013-09-24 10:48:00,
2013-09-24 06:53:00,41.1,40.3,30.06,SSE,155,0.0,0.0,97,-99.99,,,0.00,wview2wurapid,2013-09-24 10:53:00,
2013-09-24 06:58:00,41.1,40.3,30.06,SSE,156,0.0,0.0,97,-99.99,,,0.00,wview2wurapid,2013-09-24 10:58:00,
2013-09-24 07:03:00,40.9,40.1,30.06,SSE,155,0.0,0.0,97,-99.99,,,0.00,wview2wurapid,2013-09-24 11:03:00,
2013-09-24 07:08:00,40.8,40.0,30.06,SSE,156,0.0,0.0,97,-99.99,,,0.00,wview2wurapid,2013-09-24 11:08:00,
2013-09-24 07:13:00,40.9,40.1,30.06,SSE,155,0.0,0.0,97,-99.99,,,0.00,wview2wurapid,2013-09-24 11:13:00,
2013-09-24 07:18:00,41.3,40.8,30.06,SSE,156,0.0,0.0,98,-99.99,,,0.00,wview2wurapid,2013-09-24 11:18:00,
2013-09-24 07:23:00,41.4,40.9,30.06,SSE,155,0.0,0.0,98,-99.99,,,0.00,wview2wurapid,2013-09-24 11:23:00,
2013-09-24 07:28:00,41.5,40.7,30.06,SSE,155,0.0,0.0,97,-99.99,,,0.00,wview2wurapid,2013-09-24 11:28:00,
2013-09-24 07:33:00,41.5,40.7,30.06,SSE,155,0.0,0.0,97,-99.99,,,0.00,wview2wurapid,2013-09-24 11:33:00,
2013-09-24 07:38:00,41.6,41.1,30.06,SSE,156,0.0,0.0,98,-99.99,,,0.00,wview2wurapid,2013-09-24 11:38:00,
2013-09-24 07:43:00,41.9,41.4,30.06,SSE,155,0.0,0.0,98,-99.99,,,0.00,wview2wurapid,2013-09-24 11:43:00,
2013-09-24 07:48:00,42.1,41.6,30.06,SSE,156,0.0,0.0,98,-99.99,,,0.00,wview2wurapid,2013-09-24 11:48:00,
2013-09-24 07:53:00,42.5,42.0,30.06,SSE,157,0.0,0.0,98,-99.99,,,0.00,wview2wurapid,2013-09-24 11:53:00,
2013-09-24 07:58:00,43.0,42.5,30.06,SSE,156,0.0,0.0,98,-99.99,,,0.00,wview2wurapid,2013-09-24 11:58:00,
2013-09-24 08:03:00,43.7,43.2,30.06,ESE,113,0.0,0.0,98,-99.99,,,0.00,wview2wurapid,2013-09-24 12:03:00,
2013-09-24 08:08:00,45.3,44.8,30.06,ESE,113,0.0,0.0,98,-99.99,,,0.00,wview2wurapid,2013-09-24 12:08:00,
2013-09-24 08:13:00,47.0,46.5,30.06,ESE,113,0.0,0.0,98,-99.99,,,0.00,wview2wurapid,2013-09-24 12:13:00,
2013-09-24 08:18:00,48.1,47.3,30.05,ESE,117,0.0,0.0,97,-99.99,,,0.00,wview2wurapid,2013-09-24 12:18:00,
2013-09-24 08:23:00,48.9,45.8,30.05,ESE,115,0.0,0.0,89,-99.99,,,0.00,wview2wurapid,2013-09-24 12:23:00,
2013-09-24 08:28:00,49.6,45.6,30.05,ESE,114,0.0,0.0,86,-99.99,,,0.00,wview2wurapid,2013-09-24 12:28:00,
2013-09-24 08:33:00,50.2,45.2,30.05,ESE,109,0.0,0.0,83,-99.99,,,0.00,wview2wurapid,2013-09-24 12:33:00,
2013-09-24 08:38:00,50.6,45.3,30.05,NE,38,0.0,0.0,82,-99.99,,,0.00,wview2wurapid,2013-09-24 12:38:00,
2013-09-24 08:43:00,50.9,45.3,30.05,NE,37,0.0,0.0,81,-99.99,,,0.00,wview2wurapid,2013-09-24 12:43:00,
2013-09-24 08:48:00,51.4,45.4,30.05,SSW,204,0.0,0.0,80,-99.99,,,0.00,wview2wurapid,2013-09-24 12:48:00,
2013-09-24 08:53:00,51.9,45.3,30.04,SSW,198,0.0,0.0,78,-99.99,,,0.00,wview2wurapid,2013-09-24 12:53:00,
2013-09-24 08:58:00,52.0,45.0,30.04,NE,43,1.0,1.0,77,-99.99,,,0.00,wview2wurapid,2013-09-24 12:58:00,
2013-09-24 09:03:00,52.0,44.7,30.04,North,359,1.0,1.0,76,-99.99,,,0.00,wview2wurapid,2013-09-24 13:03:00,
2013-09-24 09:08:00,52.0,44.7,30.04,North,0,0.0,0.0,76,-99.99,,,0.00,wview2wurapid,2013-09-24 13:08:00,
2013-09-24 09:13:00,52.4,45.4,30.04,WNW,284,0.0,0.0,77,-99.99,,,0.00,wview2wurapid,2013-09-24 13:13:00,
2013-09-24 09:18:00,52.8,45.1,30.03,SE,131,0.0,0.0,75,-99.99,,,0.00,wview2wurapid,2013-09-24 13:18:00,
2013-09-24 09:23:00,53.2,45.8,30.03,East,100,0.0,0.0,76,-99.99,,,0.00,wview2wurapid,2013-09-24 13:23:00,
2013-09-24 09:28:00,53.6,45.9,30.03,West,273,0.0,0.0,75,-99.99,,,0.00,wview2wurapid,2013-09-24 13:28:00,
2013-09-24 09:33:00,53.9,45.8,30.04,NE,50,1.0,1.0,74,-99.99,,,0.00,wview2wurapid,2013-09-24 13:33:00,
2013-09-24 09:38:00,54.2,45.7,30.03,ESE,114,0.0,0.0,73,-99.99,,,0.00,wview2wurapid,2013-09-24 13:38:00,
2013-09-24 09:43:00,54.4,45.6,30.03,East,94,1.0,1.0,72,-99.99,,,0.00,wview2wurapid,2013-09-24 13:43:00,
2013-09-24 09:48:00,55.1,46.6,30.03,WNW,293,0.0,0.0,73,-99.99,,,0.00,wview2wurapid,2013-09-24 13:48:00,
2013-09-24 09:53:00,55.6,46.0,30.03,NNE,27,0.0,0.0,70,-99.99,,,0.00,wview2wurapid,2013-09-24 13:53:00,
2013-09-24 09:58:00,55.8,46.2,30.03,ENE,70,1.0,1.0,70,-99.99,,,0.00,wview2wurapid,2013-09-24 13:58:00,
2013-09-24 10:03:00,56.2,46.5,30.03,South,186,1.0,1.0,70,-99.99,,,0.00,wview2wurapid,2013-09-24 14:03:00,
2013-09-24 10:08:00,56.6,47.3,30.03,SE,127,1.0,1.0,71,-99.99,,,0.00,wview2wurapid,2013-09-24 14:08:00,
2013-09-24 10:13:00,57.1,47.0,30.02,NE,48,2.0,2.0,69,-99.99,,,0.00,wview2wurapid,2013-09-24 14:13:00,
2013-09-24 10:18:00,57.3,46.8,30.02,ESE,102,0.0,0.0,68,-99.99,,,0.00,wview2wurapid,2013-09-24 14:18:00,
2013-09-24 10:23:00,57.9,47.8,30.02,SE,132,0.0,0.0,69,-99.99,,,0.00,wview2wurapid,2013-09-24 14:23:00,
2013-09-24 10:28:00,58.3,47.0,30.02,West,260,0.0,0.0,66,-99.99,,,0.00,wview2wurapid,2013-09-24 14:28:00,
2013-09-24 10:33:00,58.7,47.0,30.01,North,359,2.0,2.0,65,-99.99,,,0.00,wview2wurapid,2013-09-24 14:33:00,
2013-09-24 10:38:00,58.8,47.9,30.01,SSE,159,0.0,0.0,67,-99.99,,,0.00,wview2wurapid,2013-09-24 14:38:00,
2013-09-24 10:43:00,59.3,47.1,30.01,NNW,340,0.0,0.0,64,-99.99,,,0.00,wview2wurapid,2013-09-24 14:43:00,
2013-09-24 10:48:00,59.6,47.0,30.01,SE,128,2.0,2.0,63,-99.99,,,0.00,wview2wurapid,2013-09-24 14:48:00,
2013-09-24 10:53:00,60.1,48.7,30.01,ENE,58,0.0,0.0,66,-99.99,,,0.00,wview2wurapid,2013-09-24 14:53:00,
2013-09-24 10:58:00,60.7,46.7,30.01,North,357,0.0,0.0,60,-99.99,,,0.00,wview2wurapid,2013-09-24 14:58:00,
2013-09-24 11:03:00,60.9,47.8,30.01,North,9,0.0,0.0,62,-99.99,,,0.00,wview2wurapid,2013-09-24 15:03:00,
2013-09-24 11:08:00,60.9,46.5,30.00,NE,53,1.0,1.0,59,-99.99,,,0.00,wview2wurapid,2013-09-24 15:08:00,
2013-09-24 11:13:00,61.3,47.3,30.00,ESE,120,0.0,0.0,60,-99.99,,,0.00,wview2wurapid,2013-09-24 15:13:00,
2013-09-24 11:18:00,61.8,47.3,30.00,NE,46,0.0,0.0,59,-99.99,,,0.00,wview2wurapid,2013-09-24 15:18:00,
2013-09-24 11:23:00,62.0,46.6,30.00,West,266,0.0,0.0,57,-99.99,,,0.00,wview2wurapid,2013-09-24 15:23:00,
2013-09-24 11:28:00,62.3,46.9,30.00,North,4,0.0,0.0,57,-99.99,,,0.00,wview2wurapid,2013-09-24 15:28:00,
2013-09-24 11:33:00,62.8,47.8,30.00,East,94,0.0,0.0,58,-99.99,,,0.00,wview2wurapid,2013-09-24 15:33:00,
2013-09-24 11:38:00,63.3,45.9,29.99,WNW,303,1.0,1.0,53,-99.99,,,0.00,wview2wurapid,2013-09-24 15:38:00,
2013-09-24 11:43:00,63.4,46.0,29.99,East,82,1.0,1.0,53,-99.99,,,0.00,wview2wurapid,2013-09-24 15:43:00,
2013-09-24 11:48:00,63.5,46.1,29.99,NNW,345,0.0,0.0,53,-99.99,,,0.00,wview2wurapid,2013-09-24 15:48:00,
2013-09-24 11:53:00,63.9,45.4,29.99,WNW,303,1.0,1.0,51,-99.99,,,0.00,wview2wurapid,2013-09-24 15:53:00,
2013-09-24 11:58:00,64.6,47.6,29.99,ENE,68,1.0,1.0,54,-99.99,,,0.00,wview2wurapid,2013-09-24 15:58:00,
2013-09-24 12:03:00,65.3,46.7,29.99,SE,129,0.0,0.0,51,-99.99,,,0.00,wview2wurapid,2013-09-24 16:03:00,
2013-09-24 12:08:00,66.0,48.9,29.98,SE,146,0.0,0.0,54,-99.99,,,0.00,wview2wurapid,2013-09-24 16:08:00,
2013-09-24 12:13:00,66.5,48.3,29.98,SSE,167,1.0,1.0,52,-99.99,,,0.00,wview2wurapid,2013-09-24 16:13:00,
2013-09-24 12:18:00,67.1,48.9,29.98,NNW,332,1.0,1.0,52,-99.99,,,0.00,wview2wurapid,2013-09-24 16:18:00,
2013-09-24 12:23:00,66.7,46.9,29.98,NE,49,0.0,0.0,49,-99.99,,,0.00,wview2wurapid,2013-09-24 16:23:00,
2013-09-24 12:28:00,67.0,47.7,29.98,SW,235,2.0,2.0,50,-99.99,,,0.00,wview2wurapid,2013-09-24 16:28:00,
2013-09-24 12:33:00,67.2,48.5,29.97,East,87,2.0,2.0,51,-99.99,,,0.00,wview2wurapid,2013-09-24 16:33:00,
2013-09-24 12:38:00,67.1,46.7,29.97,WNW,301,0.0,0.0,48,-99.99,,,0.00,wview2wurapid,2013-09-24 16:38:00,
2013-09-24 12:43:00,67.4,49.2,29.97,WSW,258,0.0,0.0,52,-99.99,,,0.00,wview2wurapid,2013-09-24 16:43:00,
2013-09-24 12:48:00,67.8,48.5,29.97,ENE,57,1.0,1.0,50,-99.99,,,0.00,wview2wurapid,2013-09-24 16:48:00,
2013-09-24 12:53:00,67.9,47.5,29.97,WSW,255,1.0,1.0,48,-99.99,,,0.00,wview2wurapid,2013-09-24 16:53:00,
2013-09-24 12:58:00,68.2,48.3,29.96,NNW,345,2.0,2.0,49,-99.99,,,0.00,wview2wurapid,2013-09-24 16:58:00,
2013-09-24 13:03:00,68.2,46.0,29.96,ENE,62,2.0,2.0,45,-99.99,,,0.00,wview2wurapid,2013-09-24 17:03:00,
2013-09-24 13:08:00,68.2,49.4,29.96,NW,323,1.0,1.0,51,-99.99,,,0.00,wview2wurapid,2013-09-24 17:08:00,
2013-09-24 13:13:00,68.5,47.5,29.96,North,352,1.0,1.0,47,-99.99,,,0.00,wview2wurapid,2013-09-24 17:13:00,
2013-09-24 13:18:00,68.7,48.8,29.95,SSW,213,0.0,0.0,49,-99.99,,,0.00,wview2wurapid,2013-09-24 17:18:00,
2013-09-24 13:23:00,69.0,49.0,29.95,WSW,249,0.0,0.0,49,-99.99,,,0.00,wview2wurapid,2013-09-24 17:23:00,
2013-09-24 13:28:00,69.3,50.9,29.95,East,86,1.0,1.0,52,-99.99,,,0.00,wview2wurapid,2013-09-24 17:28:00,
2013-09-24 13:33:00,69.5,49.5,29.95,WNW,301,0.0,0.0,49,-99.99,,,0.00,wview2wurapid,2013-09-24 17:33:00,
2013-09-24 13:38:00,69.4,48.3,29.94,North,11,1.0,1.0,47,-99.99,,,0.00,wview2wurapid,2013-09-24 17:38:00,
2013-09-24 13:43:00,69.5,49.5,29.94,North,352,0.0,0.0,49,-99.99,,,0.00,wview2wurapid,2013-09-24 17:43:00,
2013-09-24 13:48:00,69.6,47.3,29.94,SW,233,0.0,0.0,45,-99.99,,,0.00,wview2wurapid,2013-09-24 17:48:00,
2013-09-24 13:53:00,70.0,45.8,29.94,WSW,242,2.0,2.0,42,-99.99,,,0.00,wview2wurapid,2013-09-24 17:53:00,
2013-09-24 13:58:00,69.9,47.6,29.93,West,266,1.0,1.0,45,-99.99,,,0.00,wview2wurapid,2013-09-24 17:58:00,
2013-09-24 14:03:00,69.5,48.9,29.93,West,268,0.0,0.0,48,-99.99,,,0.00,wview2wurapid,2013-09-24 18:03:00,
2013-09-24 14:08:00,69.6,49.0,29.93,East,80,0.0,0.0,48,-99.99,,,0.00,wview2wurapid,2013-09-24 18:08:00,
2013-09-24 14:13:00,69.9,49.3,29.93,WSW,250,1.0,1.0,48,-99.99,,,0.00,wview2wurapid,2013-09-24 18:13:00,
2013-09-24 14:18:00,70.1,47.8,29.93,West,281,0.0,0.0,45,-99.99,,,0.00,wview2wurapid,2013-09-24 18:18:00,
2013-09-24 14:23:00,70.3,49.1,29.92,NW,326,0.0,0.0,47,-99.99,,,0.00,wview2wurapid,2013-09-24 18:23:00,
2013-09-24 14:28:00,70.5,51.0,29.92,West,266,0.0,0.0,50,-99.99,,,0.00,wview2wurapid,2013-09-24 18:28:00,
2013-09-24 14:33:00,70.6,48.8,29.92,ENE,70,1.0,1.0,46,-99.99,,,0.00,wview2wurapid,2013-09-24 18:33:00,
2013-09-24 14:38:00,70.4,49.8,29.92,ESE,120,0.0,0.0,48,-99.99,,,0.00,wview2wurapid,2013-09-24 18:38:00,
2013-09-24 14:43:00,70.5,47.5,29.92,ESE,120,1.0,1.0,44,-99.99,,,0.00,wview2wurapid,2013-09-24 18:43:00,
2013-09-24 14:48:00,70.3,49.1,29.91,NE,39,2.0,2.0,47,-99.99,,,0.00,wview2wurapid,2013-09-24 18:48:00,
2013-09-24 14:53:00,70.1,48.3,29.91,West,270,0.0,0.0,46,-99.99,,,0.00,wview2wurapid,2013-09-24 18:53:00,
2013-09-24 14:58:00,70.0,49.4,29.91,WNW,286,0.0,0.0,48,-99.99,,,0.00,wview2wurapid,2013-09-24 18:58:00,
2013-09-24 15:03:00,69.8,48.1,29.91,NNW,344,0.0,0.0,46,-99.99,,,0.00,wview2wurapid,2013-09-24 19:03:00,
2013-09-24 15:08:00,69.8,48.6,29.91,ESE,113,0.0,0.0,47,-99.99,,,0.00,wview2wurapid,2013-09-24 19:08:00,
2013-09-24 15:13:00,69.5,47.8,29.91,NNW,330,1.0,1.0,46,-99.99,,,0.00,wview2wurapid,2013-09-24 19:13:00,
2013-09-24 15:18:00,69.6,48.5,29.91,ENE,65,0.0,0.0,47,-99.99,,,0.00,wview2wurapid,2013-09-24 19:18:00,
2013-09-24 15:23:00,69.5,48.4,29.91,SSE,155,0.0,0.0,47,-99.99,,,0.00,wview2wurapid,2013-09-24 19:23:00,
2013-09-24 15:28:00,69.3,48.8,29.91,WSW,253,1.0,1.0,48,-99.99,,,0.00,wview2wurapid,2013-09-24 19:28:00,
2013-09-24 15:33:00,69.0,48.5,29.91,WNW,294,0.0,0.0,48,-99.99,,,0.00,wview2wurapid,2013-09-24 19:33:00,
2013-09-24 15:38:00,68.6,47.6,29.90,WNW,284,0.0,0.0,47,-99.99,,,0.00,wview2wurapid,2013-09-24 19:38:00,
2013-09-24 15:43:00,68.3,47.3,29.90,ESE,115,1.0,1.0,47,-99.99,,,0.00,wview2wurapid,2013-09-24 19:43:00,
2013-09-24 15:48:00,68.0,48.1,29.90,West,279,0.0,0.0,49,-99.99,,,0.00,wview2wurapid,2013-09-24 19:48:00,
2013-09-24 15:53:00,67.6,48.3,29.90,SE,124,0.0,0.0,50,-99.99,,,0.00,wview2wurapid,2013-09-24 19:53:00,
2013-09-24 15:58:00,67.4,49.7,29.90,SE,124,0.0,0.0,53,-99.99,,,0.00,wview2wurapid,2013-09-24 19:58:00,
2013-09-24 16:03:00,67.3,46.4,29.90,WNW,291,0.0,0.0,47,-99.99,,,0.00,wview2wurapid,2013-09-24 20:03:00,
2013-09-24 16:08:00,67.3,49.1,29.90,NE,37,0.0,0.0,52,-99.99,,,0.00,wview2wurapid,2013-09-24 20:08:00,
2013-09-24 16:13:00,66.8,49.1,29.90,WNW,293,0.0,0.0,53,-99.99,,,0.00,wview2wurapid,2013-09-24 20:13:00,
2013-09-24 16:18:00,66.4,47.7,29.90,NW,319,0.0,0.0,51,-99.99,,,0.00,wview2wurapid,2013-09-24 20:18:00,
2013-09-24 16:23:00,66.2,47.5,29.90,WSW,239,0.0,0.0,51,-99.99,,,0.00,wview2wurapid,2013-09-24 20:23:00,
2013-09-24 16:28:00,66.2,47.0,29.89,West,266,0.0,0.0,50,-99.99,,,0.00,wview2wurapid,2013-09-24 20:28:00,
2013-09-24 16:33:00,66.2,48.0,29.89,West,266,1.0,1.0,52,-99.99,,,0.00,wview2wurapid,2013-09-24 20:33:00,
2013-09-24 16:38:00,66.1,48.0,29.89,West,266,0.0,0.0,52,-99.99,,,0.00,wview2wurapid,2013-09-24 20:38:00,
2013-09-24 16:43:00,65.9,46.7,29.90,West,266,0.0,0.0,50,-99.99,,,0.00,wview2wurapid,2013-09-24 20:43:00,
2013-09-24 16:48:00,65.8,47.7,29.90,West,266,0.0,0.0,52,-99.99,,,0.00,wview2wurapid,2013-09-24 20:48:00,
2013-09-24 16:53:00,65.6,47.5,29.90,West,278,0.0,0.0,52,-99.99,,,0.00,wview2wurapid,2013-09-24 20:53:00,
2013-09-24 16:58:00,65.6,48.0,29.90,West,278,0.0,0.0,53,-99.99,,,0.00,wview2wurapid,2013-09-24 20:58:00,
2013-09-24 17:03:00,65.5,48.4,29.90,West,278,0.0,0.0,54,-99.99,,,0.00,wview2wurapid,2013-09-24 21:03:00,
2013-09-24 17:08:00,65.4,48.8,29.90,West,278,0.0,0.0,55,-99.99,,,0.00,wview2wurapid,2013-09-24 21:08:00,
2013-09-24 17:13:00,65.4,48.3,29.90,West,278,0.0,0.0,54,-99.99,,,0.00,wview2wurapid,2013-09-24 21:13:00,
2013-09-24 17:18:00,65.4,49.3,29.90,WSW,257,0.0,0.0,56,-99.99,,,0.00,wview2wurapid,2013-09-24 21:18:00,
2013-09-24 17:23:00,65.2,48.1,29.90,WSW,257,0.0,0.0,54,-99.99,,,0.00,wview2wurapid,2013-09-24 21:23:00,
2013-09-24 17:28:00,65.1,48.0,29.90,WSW,257,0.0,0.0,54,-99.99,,,0.00,wview2wurapid,2013-09-24 21:28:00,
2013-09-24 17:33:00,65.1,48.0,29.90,NNE,18,0.0,0.0,54,-99.99,,,0.00,wview2wurapid,2013-09-24 21:33:00,
2013-09-24 17:38:00,64.8,48.2,29.90,North,9,0.0,0.0,55,-99.99,,,0.00,wview2wurapid,2013-09-24 21:38:00,
2013-09-24 17:43:00,64.6,49.0,29.90,NW,314,0.0,0.0,57,-99.99,,,0.00,wview2wurapid,2013-09-24 21:43:00,
2013-09-24 17:48:00,64.2,48.6,29.90,NW,307,0.0,0.0,57,-99.99,,,0.00,wview2wurapid,2013-09-24 21:48:00,
2013-09-24 17:53:00,63.8,48.7,29.90,WNW,287,0.0,0.0,58,-99.99,,,0.00,wview2wurapid,2013-09-24 21:53:00,
2013-09-24 17:58:00,63.5,48.9,29.90,WNW,287,0.0,0.0,59,-99.99,,,0.00,wview2wurapid,2013-09-24 21:58:00,
2013-09-24 18:03:00,63.2,49.1,29.90,WNW,287,0.0,0.0,60,-99.99,,,0.00,wview2wurapid,2013-09-24 22:03:00,
2013-09-24 18:08:00,62.9,48.8,29.90,WNW,286,0.0,0.0,60,-99.99,,,0.00,wview2wurapid,2013-09-24 22:08:00,
2013-09-24 18:13:00,62.7,48.6,29.90,WNW,287,0.0,0.0,60,-99.99,,,0.00,wview2wurapid,2013-09-24 22:13:00,
2013-09-24 18:18:00,62.5,49.3,29.90,WNW,287,0.0,0.0,62,-99.99,,,0.00,wview2wurapid,2013-09-24 22:18:00,
2013-09-24 18:23:00,62.2,48.6,29.90,WNW,286,0.0,0.0,61,-99.99,,,0.00,wview2wurapid,2013-09-24 22:23:00,
2013-09-24 18:28:00,62.0,48.4,29.90,WNW,287,0.0,0.0,61,-99.99,,,0.00,wview2wurapid,2013-09-24 22:28:00,
2013-09-24 18:33:00,61.9,47.9,29.90,WNW,286,0.0,0.0,60,-99.99,,,0.00,wview2wurapid,2013-09-24 22:33:00,
2013-09-24 18:38:00,61.8,48.2,29.90,WNW,287,0.0,0.0,61,-99.99,,,0.00,wview2wurapid,2013-09-24 22:38:00,
2013-09-24 18:43:00,61.5,47.9,29.90,WNW,287,0.0,0.0,61,-99.99,,,0.00,wview2wurapid,2013-09-24 22:43:00,
2013-09-24 18:48:00,61.2,48.5,29.90,WNW,286,0.0,0.0,63,-99.99,,,0.00,wview2wurapid,2013-09-24 22:48:00,
2013-09-24 18:53:00,60.9,48.2,29.90,WNW,286,0.0,0.0,63,-99.99,,,0.00,wview2wurapid,2013-09-24 22:53:00,
2013-09-24 18:58:00,60.6,48.4,29.90,WNW,286,0.0,0.0,64,-99.99,,,0.00,wview2wurapid,2013-09-24 22:58:00,
2013-09-24 19:03:00,60.6,47.5,29.91,WNW,287,1.0,1.0,62,-99.99,,,0.00,wview2wurapid,2013-09-24 23:03:00,
2013-09-24 19:08:00,60.7,47.6,29.91,WNW,286,0.0,0.0,62,-99.99,,,0.00,wview2wurapid,2013-09-24 23:08:00,
2013-09-24 19:13:00,60.7,48.0,29.90,WNW,287,0.0,0.0,63,-99.99,,,0.00,wview2wurapid,2013-09-24 23:13:00,
2013-09-24 19:18:00,60.5,47.0,29.90,WNW,286,0.0,0.0,61,-99.99,,,0.00,wview2wurapid,2013-09-24 23:18:00,
2013-09-24 19:23:00,60.4,47.3,29.90,WNW,287,0.0,0.0,62,-99.99,,,0.00,wview2wurapid,2013-09-24 23:23:00,
2013-09-24 19:28:00,60.0,47.4,29.90,WNW,286,0.0,0.0,63,-99.99,,,0.00,wview2wurapid,2013-09-24 23:28:00,
2013-09-24 19:33:00,59.6,47.8,29.90,WNW,287,0.0,0.0,65,-99.99,,,0.00,wview2wurapid,2013-09-24 23:33:00,
2013-09-24 19:38:00,59.1,47.7,29.90,WNW,287,0.0,0.0,66,-99.99,,,0.00,wview2wurapid,2013-09-24 23:38:00,
2013-09-24 19:43:00,58.6,47.7,29.90,WNW,286,0.0,0.0,67,-99.99,,,0.00,wview2wurapid,2013-09-24 23:43:00,
2013-09-24 19:48:00,58.4,47.9,29.90,WNW,286,0.0,0.0,68,-99.99,,,0.00,wview2wurapid,2013-09-24 23:48:00,
2013-09-24 19:53:00,58.3,47.8,29.89,WNW,286,0.0,0.0,68,-99.99,,,0.00,wview2wurapid,2013-09-24 23:53:00,
2013-09-24 19:58:00,58.0,48.3,29.90,WNW,287,0.0,0.0,70,-99.99,,,0.00,wview2wurapid,2013-09-24 23:58:00,
2013-09-24 20:03:00,58.2,48.1,29.90,ENE,68,0.0,0.0,69,-99.99,,,0.00,wview2wurapid,2013-09-25 00:03:00,
2013-09-24 20:08:00,58.2,47.3,29.91,WNW,288,0.0,0.0,67,-99.99,,,0.00,wview2wurapid,2013-09-25 00:08:00,
2013-09-24 20:13:00,58.3,47.0,29.90,WNW,288,0.0,0.0,66,-99.99,,,0.00,wview2wurapid,2013-09-25 00:13:00,
2013-09-24 20:18:00,58.4,47.5,29.91,WNW,288,0.0,0.0,67,-99.99,,,0.00,wview2wurapid,2013-09-25 00:18:00,
2013-09-24 20:23:00,58.3,47.4,29.91,WNW,288,0.0,0.0,67,-99.99,,,0.00,wview2wurapid,2013-09-25 00:23:00,
2013-09-24 20:28:00,58.2,48.1,29.91,WNW,288,0.0,0.0,69,-99.99,,,0.00,wview2wurapid,2013-09-25 00:28:00,
2013-09-24 20:33:00,58.0,48.3,29.91,WNW,288,0.0,0.0,70,-99.99,,,0.00,wview2wurapid,2013-09-25 00:33:00,
2013-09-24 20:38:00,57.7,48.0,29.91,WNW,288,0.0,0.0,70,-99.99,,,0.00,wview2wurapid,2013-09-25 00:38:00,
2013-09-24 20:43:00,57.5,48.5,29.91,WNW,288,0.0,0.0,72,-99.99,,,0.00,wview2wurapid,2013-09-25 00:43:00,
2013-09-24 20:48:00,57.2,48.3,29.91,WNW,288,0.0,0.0,72,-99.99,,,0.00,wview2wurapid,2013-09-25 00:48:00,
2013-09-24 20:53:00,56.8,48.2,29.92,WNW,288,0.0,0.0,73,-99.99,,,0.00,wview2wurapid,2013-09-25 00:53:00,
2013-09-24 20:58:00,56.5,48.3,29.92,WNW,288,0.0,0.0,74,-99.99,,,0.00,wview2wurapid,2013-09-25 00:58:00,
2013-09-24 21:03:00,56.3,48.1,29.92,WNW,288,0.0,0.0,74,-99.99,,,0.00,wview2wurapid,2013-09-25 01:03:00,
2013-09-24 21:08:00,56.2,47.7,29.92,WNW,288,0.0,0.0,73,-99.99,,,0.00,wview2wurapid,2013-09-25 01:08:00,
2013-09-24 21:13:00,56.2,48.4,29.92,WNW,288,0.0,0.0,75,-99.99,,,0.00,wview2wurapid,2013-09-25 01:13:00,
2013-09-24 21:18:00,55.9,48.4,29.92,WNW,288,0.0,0.0,76,-99.99,,,0.00,wview2wurapid,2013-09-25 01:18:00,
2013-09-24 21:23:00,55.6,48.2,29.93,WNW,288,0.0,0.0,76,-99.99,,,0.00,wview2wurapid,2013-09-25 01:23:00,
2013-09-24 21:28:00,55.5,48.4,29.93,WNW,288,0.0,0.0,77,-99.99,,,0.00,wview2wurapid,2013-09-25 01:28:00,
2013-09-24 21:33:00,55.4,48.3,29.93,WNW,288,0.0,0.0,77,-99.99,,,0.00,wview2wurapid,2013-09-25 01:33:00,
2013-09-24 21:38:00,55.3,48.6,29.93,WNW,288,0.0,0.0,78,-99.99,,,0.00,wview2wurapid,2013-09-25 01:38:00,
2013-09-24 21:43:00,55.2,48.1,29.93,WNW,288,0.0,0.0,77,-99.99,,,0.00,wview2wurapid,2013-09-25 01:43:00,
2013-09-24 21:48:00,55.2,48.5,29.93,WNW,288,0.0,0.0,78,-99.99,,,0.00,wview2wurapid,2013-09-25 01:48:00,
2013-09-24 21:53:00,55.2,47.8,29.93,WNW,288,0.0,0.0,76,-99.99,,,0.00,wview2wurapid,2013-09-25 01:53:00,
2013-09-24 21:58:00,55.3,47.5,29.93,WNW,288,0.0,0.0,75,-99.99,,,0.00,wview2wurapid,2013-09-25 01:58:00,
2013-09-24 22:03:00,55.5,47.3,29.93,WNW,288,0.0,0.0,74,-99.99,,,0.00,wview2wurapid,2013-09-25 02:03:00,
2013-09-24 22:08:00,55.5,47.3,29.93,WNW,288,0.0,0.0,74,-99.99,,,0.00,wview2wurapid,2013-09-25 02:08:00,
2013-09-24 22:13:00,55.5,47.3,29.93,WNW,288,0.0,0.0,74,-99.99,,,0.00,wview2wurapid,2013-09-25 02:13:00,
2013-09-24 22:18:00,55.4,46.9,29.93,WNW,288,0.0,0.0,73,-99.99,,,0.00,wview2wurapid,2013-09-25 02:18:00,
2013-09-24 22:23:00,55.5,47.0,29.93,WNW,288,0.0,0.0,73,-99.99,,,0.00,wview2wurapid,2013-09-25 02:23:00,
2013-09-24 22:28:00,55.6,47.1,29.94,WNW,288,0.0,0.0,73,-99.99,,,0.00,wview2wurapid,2013-09-25 02:28:00,
2013-09-24 22:33:00,55.6,47.1,29.94,WNW,288,0.0,0.0,73,-99.99,,,0.00,wview2wurapid,2013-09-25 02:33:00,
2013-09-24 22:38:00,55.7,46.8,29.94,WNW,288,0.0,0.0,72,-99.99,,,0.00,wview2wurapid,2013-09-25 02:38:00,
2013-09-24 22:43:00,55.8,46.9,29.94,WNW,288,0.0,0.0,72,-99.99,,,0.00,wview2wurapid,2013-09-25 02:43:00,
2013-09-24 22:48:00,55.7,46.8,29.94,WNW,288,0.0,0.0,72,-99.99,,,0.00,wview2wurapid,2013-09-25 02:48:00,
2013-09-24 22:53:00,55.8,47.6,29.94,WNW,288,0.0,0.0,74,-99.99,,,0.00,wview2wurapid,2013-09-25 02:53:00,
2013-09-24 22:58:00,55.8,47.3,29.94,WNW,288,0.0,0.0,73,-99.99,,,0.00,wview2wurapid,2013-09-25 02:58:00,
2013-09-24 23:03:00,55.7,46.8,29.95,WNW,288,0.0,0.0,72,-99.99,,,0.00,wview2wurapid,2013-09-25 03:03:00,
2013-09-24 23:08:00,55.5,46.6,29.94,WNW,288,0.0,0.0,72,-99.99,,,0.00,wview2wurapid,2013-09-25 03:08:00,
2013-09-24 23:13:00,55.5,46.6,29.94,WNW,288,0.0,0.0,72,-99.99,,,0.00,wview2wurapid,2013-09-25 03:13:00,
2013-09-24 23:18:00,55.5,47.0,29.95,WNW,288,0.0,0.0,73,-99.99,,,0.00,wview2wurapid,2013-09-25 03:18:00,
2013-09-24 23:23:00,55.4,46.9,29.95,WNW,288,0.0,0.0,73,-99.99,,,0.00,wview2wurapid,2013-09-25 03:23:00,
2013-09-24 23:28:00,55.3,46.4,29.95,WNW,288,0.0,0.0,72,-99.99,,,0.00,wview2wurapid,2013-09-25 03:28:00,
2013-09-24 23:33:00,55.1,46.6,29.95,WNW,288,0.0,0.0,73,-99.99,,,0.00,wview2wurapid,2013-09-25 03:33:00,
2013-09-24 23:38:00,54.9,46.8,29.95,WNW,288,0.0,0.0,74,-99.99,,,0.00,wview2wurapid,2013-09-25 03:38:00,
2013-09-24 23:43:00,54.7,46.6,29.95,WNW,288,0.0,0.0,74,-99.99,,,0.00,wview2wurapid,2013-09-25 03:43:00,
2013-09-24 23:48:00,54.6,46.5,29.95,WNW,288,0.0,0.0,74,-99.99,,,0.00,wview2wurapid,2013-09-25 03:48:00,
2013-09-24 23:53:00,54.3,46.2,29.95,WNW,288,0.0,0.0,74,-99.99,,,0.00,wview2wurapid,2013-09-25 03:53:00,
2013-09-24 23:58:00,54.2,46.4,29.95,WNW,288,0.0,0.0,75,-99.99,,,0.00,wview2wurapid,2013-09-25 03:58:00,